Time;durP1;ratioP1;P1;durP2;ratioP2;P2;SDS_P1;SDS_P2;PMS_P1;PMS_P2;Temp;Humidity;BMP_temperature;BMP_pressure;BME280_temperature;BME280_humidity;BME280_pressure;Samples;Min_cycle;Max_cycle;Signal;HPM_P1;HPM_P2
2021/12/15 00:01:47;;;;;;;15.95;10.85;;;12.70;73.00;;;;;;5002480;28;20034;-49
2021/12/15 00:04:15;;;;;;;15.07;9.90;;;12.60;72.90;;;;;;5011684;28;20050;-49
2021/12/15 00:06:42;;;;;;;12.52;9.57;;;12.60;73.00;;;;;;4998848;28;20494;-49
2021/12/15 00:09:12;;;;;;;12.55;9.05;;;12.70;73.10;;;;;;5002856;28;20097;-50
2021/12/15 00:11:41;;;;;;;14.55;9.63;;;12.70;73.10;;;;;;4997251;28;20054;-49
2021/12/15 00:14:11;;;;;;;15.20;9.95;;;12.60;73.00;;;;;;5003695;28;20640;-47
2021/12/15 00:16:38;;;;;;;14.00;9.77;;;12.70;73.10;;;;;;4992374;28;20494;-46
2021/12/15 00:19:06;;;;;;;13.18;9.63;;;12.70;73.10;;;;;;4992561;28;20050;-48
2021/12/15 00:21:34;;;;;;;12.40;9.35;;;12.60;73.10;;;;;;5006157;28;20042;-49
2021/12/15 00:24:03;;;;;;;15.23;9.82;;;12.70;73.10;;;;;;4990153;28;20108;-47
2021/12/15 00:26:30;;;;;;;12.48;8.90;;;12.60;73.10;;;;;;4992997;28;20046;-49
2021/12/15 00:29:01;;;;;;;12.35;8.52;;;12.70;73.10;;;;;;4976650;28;20081;-46
2021/12/15 00:31:30;;;;;;;13.38;9.60;;;12.70;73.10;;;;;;5003560;28;20247;-47
2021/12/15 00:33:59;;;;;;;11.73;9.32;;;12.70;73.20;;;;;;5002037;28;20038;-46
2021/12/15 00:36:26;;;;;;;11.88;9.10;;;12.70;73.20;;;;;;5011729;28;20057;-46
2021/12/15 00:38:53;;;;;;;12.57;9.55;;;12.70;73.20;;;;;;5001941;28;20050;-46
2021/12/15 00:41:20;;;;;;;11.85;9.25;;;12.70;73.20;;;;;;5001007;28;20101;-46
2021/12/15 00:43:47;;;;;;;14.05;9.45;;;12.70;73.20;;;;;;5008410;28;20050;-45
2021/12/15 00:46:14;;;;;;;11.30;8.70;;;12.70;73.20;;;;;;4994619;28;20038;-46
2021/12/15 00:48:43;;;;;;;14.98;9.02;;;12.70;73.30;;;;;;4999777;28;20042;-46
2021/12/15 00:51:10;;;;;;;11.98;8.68;;;12.70;73.40;;;;;;5002843;28;20120;-46
2021/12/15 00:53:37;;;;;;;11.70;8.40;;;12.70;73.40;;;;;;5010707;28;20096;-45
2021/12/15 00:56:04;;;;;;;15.32;10.73;;;12.70;73.50;;;;;;4999142;28;20068;-46
2021/12/15 00:58:31;;;;;;;13.20;10.20;;;12.70;73.60;;;;;;4998925;28;20042;-45
2021/12/15 01:01:02;;;;;;;12.45;8.75;;;12.70;73.60;;;;;;4986664;28;20049;-45
2021/12/15 01:03:31;;;;;;;14.55;9.55;;;12.70;73.60;;;;;;5005509;28;20042;-46
2021/12/15 01:06:05;;;;;;;13.40;9.60;;;12.70;73.70;;;;;;4980631;28;20046;-46
2021/12/15 01:08:36;;;;;;;14.77;10.13;;;12.70;73.90;;;;;;4997912;28;20485;-45
2021/12/15 01:11:15;;;;;;;13.38;9.13;;;12.60;74.00;;;;;;4982702;28;20050;-46
2021/12/15 01:22:20;;;;;;;13.50;10.13;;;12.60;74.20;;;;;;5009960;28;20042;-45
2021/12/15 01:24:47;;;;;;;15.02;10.25;;;12.60;74.50;;;;;;4976233;28;20039;-47
2021/12/15 01:27:15;;;;;;;13.68;9.27;;;12.60;74.60;;;;;;4981166;28;20048;-45
2021/12/15 01:29:42;;;;;;;13.95;9.93;;;12.50;74.60;;;;;;5002052;28;20034;-46
2021/12/15 01:32:09;;;;;;;14.35;10.57;;;12.50;74.80;;;;;;4992119;28;20126;-46
2021/12/15 01:34:36;;;;;;;15.23;10.43;;;12.50;74.90;;;;;;4998514;28;20540;-45
2021/12/15 01:37:04;;;;;;;17.40;10.18;;;12.50;75.00;;;;;;4983944;28;20514;-47
2021/12/15 01:39:31;;;;;;;14.43;9.88;;;12.50;75.10;;;;;;4988364;28;20052;-45
2021/12/15 01:41:58;;;;;;;15.73;10.10;;;12.50;75.20;;;;;;4992313;28;20050;-46
2021/12/15 01:47:01;;;;;;;16.17;10.02;;;12.50;75.30;;;;;;4998680;28;20491;-45
2021/12/15 01:49:33;;;;;;;16.90;11.57;;;12.50;75.50;;;;;;4971857;28;20050;-46
2021/12/15 01:52:19;;;;;;;13.38;10.05;;;12.50;75.50;;;;;;5007371;28;20996;-50
2021/12/15 01:54:51;;;;;;;13.88;10.65;;;12.50;75.60;;;;;;4993281;28;20050;-50
2021/12/15 01:57:19;;;;;;;15.05;11.48;;;12.50;75.50;;;;;;4984175;28;20069;-49
2021/12/15 01:59:47;;;;;;;16.05;11.13;;;12.50;75.40;;;;;;4987407;28;20129;-49
2021/12/15 02:02:16;;;;;;;13.77;10.60;;;12.50;75.40;;;;;;4996794;28;20097;-49
2021/12/15 02:04:46;;;;;;;16.92;12.00;;;12.50;75.50;;;;;;4987318;28;20463;-50
2021/12/15 02:07:17;;;;;;;14.02;10.55;;;12.50;75.60;;;;;;4979579;28;20070;-50
2021/12/15 02:12:28;;;;;;;16.27;10.88;;;12.50;75.70;;;;;;5002948;28;20053;-49
2021/12/15 02:14:57;;;;;;;16.25;11.07;;;12.50;75.70;;;;;;4979077;28;20042;-50
2021/12/15 02:17:25;;;;;;;15.60;11.55;;;12.50;75.70;;;;;;4972353;28;20697;-47
2021/12/15 02:19:52;;;;;;;14.45;10.88;;;12.40;75.60;;;;;;4975294;28;20046;-50
2021/12/15 02:22:19;;;;;;;15.32;11.60;;;12.50;75.70;;;;;;4979378;28;20062;-50
2021/12/15 02:24:52;;;;;;;17.30;11.88;;;12.50;75.70;;;;;;4980152;28;20042;-48
2021/12/15 02:27:21;;;;;;;17.20;11.32;;;12.50;75.70;;;;;;4989986;28;20042;-49
2021/12/15 02:29:52;;;;;;;16.15;11.50;;;12.40;75.70;;;;;;4990787;28;20089;-50
2021/12/15 02:32:32;;;;;;;15.70;11.75;;;12.40;75.70;;;;;;5001087;28;20042;-48
2021/12/15 02:37:45;;;;;;;16.73;11.27;;;12.50;75.80;;;;;;5005873;28;20046;-46
2021/12/15 02:40:18;;;;;;;19.67;13.23;;;12.40;75.70;;;;;;4974536;28;20061;-49
2021/12/15 02:42:47;;;;;;;16.90;11.95;;;12.40;75.80;;;;;;4981754;28;20038;-45
2021/12/15 02:45:18;;;;;;;17.20;12.23;;;12.40;75.80;;;;;;5002147;28;20088;-47
2021/12/15 02:47:45;;;;;;;15.80;12.25;;;12.40;76.50;;;;;;5008567;28;20046;-45
2021/12/15 02:50:18;;;;;;;18.60;13.48;;;12.40;75.90;;;;;;4997323;28;20088;-48
2021/12/15 02:52:45;;;;;;;16.38;12.30;;;12.40;76.00;;;;;;5003403;28;20084;-46
2021/12/15 02:55:14;;;;;;;16.98;12.18;;;12.40;76.00;;;;;;4991504;28;20123;-45
2021/12/15 02:57:42;;;;;;;16.80;12.13;;;12.40;76.10;;;;;;4998956;28;20502;-46
2021/12/15 03:00:20;;;;;;;16.67;11.88;;;12.40;76.80;;;;;;4997671;28;20548;-47
2021/12/15 03:05:31;;;;;;;16.60;12.25;;;12.40;76.20;;;;;;5009262;28;20390;-46
2021/12/15 03:08:12;;;;;;;17.73;12.32;;;12.40;76.20;;;;;;4994938;28;20054;-45
2021/12/15 03:16:13;;;;;;;15.70;11.35;;;12.40;76.20;;;;;;5002697;28;20115;-45
2021/12/15 03:18:42;;;;;;;19.13;12.73;;;12.40;76.20;;;;;;5000253;28;20418;-47
2021/12/15 03:21:15;;;;;;;14.70;11.88;;;12.40;76.30;;;;;;5004999;28;20429;-45
2021/12/15 03:23:52;;;;;;;18.15;12.57;;;12.30;76.30;;;;;;5003711;28;20093;-47
2021/12/15 03:26:36;;;;;;;17.15;12.40;;;12.30;76.40;;;;;;4999807;28;20037;-46
2021/12/15 03:37:25;;;;;;;15.73;11.30;;;12.30;76.40;;;;;;5000934;28;20042;-45
2021/12/15 03:40:06;;;;;;;13.77;11.38;;;12.40;76.50;;;;;;5002957;28;20104;-46
2021/12/15 03:42:40;;;;;;;15.52;11.98;;;12.30;76.50;;;;;;5012323;28;20042;-45
2021/12/15 03:45:12;;;;;;;14.55;11.35;;;12.30;76.50;;;;;;5002058;28;20047;-46
2021/12/15 03:47:42;;;;;;;17.80;11.32;;;12.30;76.50;;;;;;5002310;28;20125;-47
2021/12/15 03:50:14;;;;;;;15.15;11.60;;;12.30;76.50;;;;;;5002887;28;20054;-48
2021/12/15 03:52:41;;;;;;;15.43;11.05;;;12.30;76.50;;;;;;5034376;22;20045;-44
2021/12/15 03:55:10;;;;;;;13.00;10.57;;;12.30;76.60;;;;;;5036051;28;20440;-44
2021/12/15 03:57:37;;;;;;;15.25;11.38;;;12.30;76.70;;;;;;5041650;28;20041;-45
2021/12/15 04:00:07;;;;;;;12.90;10.27;;;12.30;76.80;;;;;;5043635;28;20089;-44
2021/12/15 04:02:38;;;;;;;16.17;11.40;;;12.30;76.80;;;;;;5051639;28;20084;-46
2021/12/15 04:05:07;;;;;;;16.00;11.45;;;12.30;76.90;;;;;;5033437;28;20132;-45
2021/12/15 04:07:35;;;;;;;16.80;10.93;;;12.20;76.80;;;;;;5038996;28;20041;-45
2021/12/15 04:10:05;;;;;;;15.23;11.10;;;12.20;76.90;;;;;;5031893;28;20033;-47
2021/12/15 04:12:32;;;;;;;13.38;9.98;;;12.30;77.00;;;;;;5032109;28;20064;-44
2021/12/15 04:15:19;;;;;;;15.00;11.27;;;12.20;77.00;;;;;;5035483;28;20071;-44
2021/12/15 04:17:47;;;;;;;12.48;9.68;;;12.20;77.00;;;;;;5040272;28;20042;-45
2021/12/15 04:20:16;;;;;;;15.85;11.65;;;12.30;77.00;;;;;;5049471;28;20037;-43
2021/12/15 04:22:44;;;;;;;15.30;10.75;;;12.20;77.00;;;;;;5031922;28;20053;-44
2021/12/15 04:25:19;;;;;;;13.38;10.80;;;12.30;77.00;;;;;;5039862;28;20069;-49
2021/12/15 04:28:02;;;;;;;14.70;11.38;;;12.20;77.00;;;;;;5031204;28;20041;-43
2021/12/15 04:30:32;;;;;;;16.17;11.80;;;12.20;77.20;;;;;;5029043;28;20728;-45
2021/12/15 04:33:07;;;;;;;16.52;11.38;;;12.20;76.90;;;;;;5034492;28;20073;-46
2021/12/15 04:35:35;;;;;;;13.88;10.50;;;12.20;77.00;;;;;;5041817;28;20564;-45
2021/12/15 04:38:02;;;;;;;12.82;11.30;;;12.20;76.90;;;;;;5050363;28;20111;-44
2021/12/15 04:40:29;;;;;;;17.00;11.57;;;12.20;77.00;;;;;;5046642;28;20046;-44
2021/12/15 04:42:56;;;;;;;15.07;10.35;;;12.20;77.00;;;;;;5034542;28;20487;-45
2021/12/15 04:45:23;;;;;;;14.38;10.23;;;12.10;77.10;;;;;;5042590;28;20033;-45
2021/12/15 04:47:52;;;;;;;16.60;11.75;;;12.20;77.20;;;;;;5050097;28;20099;-49
2021/12/15 04:50:24;;;;;;;13.27;10.27;;;12.20;77.20;;;;;;5017849;28;20037;-44
2021/12/15 04:52:51;;;;;;;13.55;10.38;;;12.20;77.20;;;;;;5038538;28;20460;-47
2021/12/15 04:55:20;;;;;;;15.80;11.65;;;12.20;77.20;;;;;;5042176;28;20083;-44
2021/12/15 04:57:48;;;;;;;14.20;10.45;;;12.20;77.20;;;;;;5050036;28;20053;-44
2021/12/15 05:00:21;;;;;;;12.85;9.68;;;12.20;77.20;;;;;;5042282;28;20042;-45
2021/12/15 05:02:51;;;;;;;13.98;10.82;;;12.20;77.20;;;;;;5033737;28;20739;-44
2021/12/15 05:05:19;;;;;;;14.52;10.95;;;12.20;77.20;;;;;;5012426;28;20046;-47
2021/12/15 05:07:46;;;;;;;14.10;10.38;;;12.20;77.20;;;;;;5026188;28;20066;-47
2021/12/15 05:10:13;;;;;;;13.05;10.85;;;12.20;77.20;;;;;;5028341;28;20041;-44
2021/12/15 05:12:40;;;;;;;14.32;11.20;;;12.10;77.20;;;;;;5031649;28;20091;-44
2021/12/15 05:15:07;;;;;;;13.05;10.43;;;12.20;77.30;;;;;;5032673;28;20061;-44
2021/12/15 05:17:35;;;;;;;15.40;11.77;;;12.10;77.30;;;;;;5027578;28;20042;-46
2021/12/15 05:20:05;;;;;;;12.35;10.10;;;12.20;77.40;;;;;;5032406;28;20087;-45
2021/12/15 05:22:33;;;;;;;14.25;11.52;;;12.10;77.40;;;;;;5031227;28;20041;-44
2021/12/15 05:25:00;;;;;;;15.70;11.57;;;12.10;77.40;;;;;;5031039;28;20433;-44
2021/12/15 05:27:27;;;;;;;16.55;10.70;;;12.10;77.40;;;;;;5026133;28;20099;-45
2021/12/15 05:29:54;;;;;;;13.40;11.15;;;12.10;77.50;;;;;;5034890;28;20091;-47
2021/12/15 05:32:22;;;;;;;15.70;11.45;;;12.10;77.60;;;;;;5037670;28;20076;-45
2021/12/15 05:34:51;;;;;;;16.50;12.07;;;12.10;77.60;;;;;;5047762;28;20175;-46
2021/12/15 05:37:21;;;;;;;16.02;11.75;;;12.10;77.70;;;;;;5040928;28;20049;-47
2021/12/15 05:39:50;;;;;;;17.88;13.00;;;12.10;77.60;;;;;;5032090;28;20099;-44
2021/12/15 05:42:19;;;;;;;18.13;11.95;;;12.10;77.60;;;;;;5041632;28;20056;-46
2021/12/15 05:44:47;;;;;;;16.20;11.70;;;12.10;77.70;;;;;;5050078;28;20098;-45
2021/12/15 05:47:15;;;;;;;17.48;12.45;;;12.10;77.80;;;;;;5040936;28;20072;-46
2021/12/15 05:49:43;;;;;;;17.88;11.73;;;12.10;77.70;;;;;;5042183;28;20040;-44
2021/12/15 05:52:10;;;;;;;13.23;10.40;;;12.20;77.80;;;;;;5041730;28;20499;-48
2021/12/15 05:54:37;;;;;;;16.88;11.50;;;12.10;77.80;;;;;;5029510;28;20053;-45
2021/12/15 05:57:05;;;;;;;16.73;12.13;;;12.10;77.70;;;;;;5026155;28;20518;-47
2021/12/15 05:59:32;;;;;;;16.08;11.75;;;12.10;77.80;;;;;;5037779;28;20106;-46
2021/12/15 06:01:59;;;;;;;15.82;12.15;;;12.20;77.80;;;;;;5048080;28;20118;-46
2021/12/15 06:04:27;;;;;;;15.45;10.48;;;12.10;77.80;;;;;;5033133;28;20133;-45
2021/12/15 06:06:56;;;;;;;16.38;11.68;;;12.20;77.80;;;;;;5016610;28;20563;-45
2021/12/15 06:09:23;;;;;;;15.20;11.38;;;12.20;77.90;;;;;;5029481;28;20072;-46
2021/12/15 06:11:53;;;;;;;17.58;12.43;;;12.20;77.90;;;;;;5046452;28;20125;-44
2021/12/15 06:14:27;;;;;;;17.02;12.15;;;12.20;77.90;;;;;;5044492;28;20053;-45
2021/12/15 06:17:01;;;;;;;13.82;11.30;;;12.20;77.90;;;;;;5038416;28;20046;-45
2021/12/15 06:19:28;;;;;;;14.65;10.95;;;12.20;78.00;;;;;;5040372;28;20048;-46
2021/12/15 06:21:55;;;;;;;16.63;12.13;;;12.20;77.90;;;;;;5048647;28;20053;-43
2021/12/15 06:24:23;;;;;;;16.08;11.90;;;12.20;77.80;;;;;;5030220;28;20511;-44
2021/12/15 06:26:51;;;;;;;16.17;11.70;;;12.20;77.90;;;;;;5033119;28;20435;-44
2021/12/15 06:29:17;;;;;;;17.73;13.13;;;12.20;77.80;;;;;;5041359;28;20045;-44
2021/12/15 06:31:44;;;;;;;14.15;10.73;;;12.20;77.90;;;;;;5049326;28;20037;-45
2021/12/15 06:34:11;;;;;;;15.82;11.63;;;12.20;77.90;;;;;;5041322;28;20102;-48
2021/12/15 06:36:38;;;;;;;16.48;11.57;;;12.20;78.00;;;;;;5041405;28;20810;-44
2021/12/15 06:39:06;;;;;;;17.08;11.90;;;12.20;78.00;;;;;;5039642;28;20041;-44
2021/12/15 06:41:33;;;;;;;18.63;12.40;;;12.20;78.10;;;;;;5050308;28;20102;-45
2021/12/15 06:44:00;;;;;;;16.08;11.43;;;12.20;78.00;;;;;;5027320;28;20056;-48
2021/12/15 06:58:10;;;;;;;14.35;11.52;;;12.20;78.00;;;;;;5043861;28;20103;-43
2021/12/15 07:00:24;;;;;;;14.15;10.52;;;12.20;78.00;;;;;;5038146;28;20057;-45
2021/12/15 07:02:52;;;;;;;17.23;10.77;;;12.20;77.90;;;;;;5029179;28;20053;-48
2021/12/15 07:05:19;;;;;;;16.88;11.90;;;12.20;77.90;;;;;;5022460;28;20042;-45
2021/12/15 07:07:48;;;;;;;15.35;12.10;;;12.20;77.80;;;;;;5035115;28;20763;-43
2021/12/15 07:10:18;;;;;;;13.75;10.77;;;12.30;78.00;;;;;;5026167;28;20045;-46
2021/12/15 07:12:45;;;;;;;13.70;10.85;;;12.30;77.90;;;;;;5029026;28;20041;-45
2021/12/15 07:15:12;;;;;;;13.75;10.35;;;12.20;77.80;;;;;;5039599;28;20174;-48
2021/12/15 07:17:40;;;;;;;13.75;10.68;;;12.20;77.90;;;;;;5048374;28;20408;-45
2021/12/15 07:22:58;;;;;;;15.43;11.32;;;12.30;78.00;;;;;;5034642;28;20041;-44
2021/12/15 07:25:26;;;;;;;14.55;10.73;;;12.30;77.90;;;;;;5036296;28;20053;-45
2021/12/15 07:27:54;;;;;;;15.20;11.10;;;12.20;77.90;;;;;;5017798;28;20106;-45
2021/12/15 07:30:21;;;;;;;13.32;10.88;;;12.30;77.90;;;;;;5012238;28;20053;-46
2021/12/15 07:32:49;;;;;;;16.73;11.50;;;12.30;77.80;;;;;;5026815;28;20070;-44
2021/12/15 07:35:17;;;;;;;16.17;11.52;;;12.30;77.90;;;;;;5012639;28;20042;-48
2021/12/15 07:37:47;;;;;;;14.10;10.93;;;12.30;77.80;;;;;;5033862;28;20096;-45
2021/12/15 07:40:20;;;;;;;13.80;11.63;;;12.30;77.80;;;;;;5022068;28;20171;-45
2021/12/15 07:43:13;;;;;;;14.98;11.40;;;12.30;77.80;;;;;;5030758;28;20045;-44
2021/12/15 07:45:50;;;;;;;14.75;10.63;;;12.30;77.90;;;;;;5018264;28;20069;-49
2021/12/15 07:48:20;;;;;;;12.65;10.80;;;12.30;77.80;;;;;;5006800;28;20069;-47
2021/12/15 07:50:50;;;;;;;13.10;10.23;;;12.30;77.80;;;;;;5021696;28;20034;-45
2021/12/15 07:53:18;;;;;;;14.23;10.60;;;12.30;77.80;;;;;;5017682;28;20108;-48
2021/12/15 07:55:48;;;;;;;13.95;10.73;;;12.30;77.80;;;;;;5020807;28;20501;-45
2021/12/15 07:58:15;;;;;;;12.85;10.65;;;12.30;77.70;;;;;;4999889;28;20053;-44
2021/12/15 08:00:43;;;;;;;15.25;10.88;;;12.30;77.70;;;;;;5021187;28;20172;-45
2021/12/15 08:03:11;;;;;;;12.77;10.32;;;12.40;77.80;;;;;;5037314;28;20135;-48
2021/12/15 08:05:40;;;;;;;15.73;10.93;;;12.30;77.80;;;;;;5021759;28;20551;-46
2021/12/15 08:08:08;;;;;;;15.70;12.10;;;12.40;77.80;;;;;;5002153;28;20049;-44
2021/12/15 08:10:35;;;;;;;15.85;12.05;;;12.30;77.70;;;;;;5025111;28;20046;-44
2021/12/15 08:13:02;;;;;;;15.98;12.52;;;12.40;77.80;;;;;;5031885;28;20669;-44
2021/12/15 08:15:32;;;;;;;14.32;11.73;;;12.40;77.80;;;;;;5027998;28;20041;-46
2021/12/15 08:17:59;;;;;;;14.85;10.68;;;12.40;77.80;;;;;;5024029;28;20053;-44
2021/12/15 08:20:28;;;;;;;15.80;12.10;;;12.40;77.80;;;;;;5018590;28;20575;-45
2021/12/15 08:22:55;;;;;;;15.80;12.05;;;12.40;77.80;;;;;;5031175;28;21009;-46
2021/12/15 08:25:22;;;;;;;17.27;12.70;;;12.40;77.80;;;;;;5016589;28;20456;-42
2021/12/15 08:27:51;;;;;;;15.38;11.45;;;12.40;77.80;;;;;;5021896;28;20045;-46
2021/12/15 08:30:21;;;;;;;16.00;12.13;;;12.40;77.90;;;;;;5020094;28;20571;-44
2021/12/15 08:32:53;;;;;;;13.88;10.93;;;12.40;78.00;;;;;;5041306;28;20032;-44
2021/12/15 08:35:22;;;;;;;17.15;11.75;;;12.40;77.90;;;;;;5003847;28;20096;-44
2021/12/15 08:37:49;;;;;;;15.98;11.93;;;12.40;77.90;;;;;;5039938;28;20504;-45
2021/12/15 08:40:18;;;;;;;16.33;12.77;;;12.40;77.90;;;;;;5044431;28;20453;-44
2021/12/15 08:42:50;;;;;;;17.88;11.90;;;12.40;77.90;;;;;;5048199;28;20111;-46
2021/12/15 08:45:18;;;;;;;17.55;13.85;;;12.40;77.90;;;;;;5027384;28;20091;-45
2021/12/15 08:47:45;;;;;;;15.38;11.68;;;12.40;77.80;;;;;;5040691;28;20397;-46
2021/12/15 08:50:15;;;;;;;15.02;12.60;;;12.50;77.90;;;;;;5052171;28;20049;-45
2021/12/15 08:52:43;;;;;;;15.30;11.73;;;12.50;78.00;;;;;;5049771;28;20049;-45
2021/12/15 08:55:10;;;;;;;14.95;12.73;;;12.50;77.90;;;;;;5023952;28;20032;-45
2021/12/15 08:57:37;;;;;;;17.60;12.18;;;12.50;77.80;;;;;;5042027;28;20045;-44
2021/12/15 09:00:07;;;;;;;18.17;12.98;;;12.50;77.80;;;;;;5043865;28;20083;-45
2021/12/15 09:02:35;;;;;;;18.70;13.20;;;12.50;77.80;;;;;;5051931;28;20396;-46
2021/12/15 09:05:04;;;;;;;14.70;11.27;;;12.50;77.80;;;;;;5035407;28;20041;-44
2021/12/15 09:07:31;;;;;;;17.40;12.07;;;12.50;77.80;;;;;;5035697;28;20057;-45
2021/12/15 09:09:57;;;;;;;17.92;12.35;;;12.50;77.80;;;;;;5032126;28;20038;-45
2021/12/15 09:12:24;;;;;;;18.88;12.73;;;12.50;77.80;;;;;;5032312;28;20029;-48
2021/12/15 09:14:51;;;;;;;17.23;12.32;;;12.60;77.90;;;;;;5036537;28;20064;-46
2021/12/15 09:17:18;;;;;;;16.40;12.00;;;12.50;77.80;;;;;;5040215;28;20033;-46
2021/12/15 09:19:44;;;;;;;16.40;11.90;;;12.60;77.90;;;;;;5049304;28;20076;-44
2021/12/15 09:22:11;;;;;;;14.32;10.75;;;12.50;77.80;;;;;;5046398;28;20050;-44
2021/12/15 09:24:38;;;;;;;16.05;11.57;;;12.60;77.80;;;;;;5031709;28;20072;-45
2021/12/15 09:27:05;;;;;;;15.35;11.57;;;12.60;77.70;;;;;;5042496;28;20530;-46
2021/12/15 09:29:32;;;;;;;15.68;11.73;;;12.60;77.70;;;;;;5052109;28;20106;-46
2021/12/15 09:31:59;;;;;;;14.98;11.02;;;12.60;77.70;;;;;;5034150;28;20099;-47
2021/12/15 09:34:26;;;;;;;14.10;11.23;;;12.70;77.70;;;;;;5041896;28;20040;-47
2021/12/15 09:36:53;;;;;;;14.00;11.27;;;12.70;77.60;;;;;;5043177;28;20033;-45
2021/12/15 09:39:22;;;;;;;17.08;12.02;;;12.70;77.50;;;;;;5051533;28;20087;-45
2021/12/15 09:41:50;;;;;;;14.98;11.07;;;12.70;77.60;;;;;;5040364;28;20079;-44
2021/12/15 09:44:22;;;;;;;16.40;10.95;;;12.70;78.20;;;;;;5031331;28;20033;-46
2021/12/15 10:03:47;;;;;;;13.18;10.43;;;12.80;77.20;;;;;;5011780;28;20050;-48
2021/12/15 10:06:48;;;;;;;15.02;10.48;;;12.80;77.10;;;;;;5013550;28;20041;-48
2021/12/15 10:19:55;;;;;;;17.63;11.63;;;12.80;77.10;;;;;;4993678;28;20104;-50
2021/12/15 10:22:34;;;;;;;13.52;10.68;;;12.80;77.10;;;;;;5003221;28;20050;-50
2021/12/15 10:25:20;;;;;;;17.27;11.27;;;12.80;77.60;;;;;;4991806;28;20047;-49
2021/12/15 10:27:47;;;;;;;11.98;10.60;;;12.80;77.00;;;;;;4990435;28;20445;-49
2021/12/15 10:30:24;;;;;;;12.82;9.93;;;12.90;77.10;;;;;;4999257;28;20066;-49
2021/12/15 10:33:17;;;;;;;14.02;10.82;;;12.90;77.00;;;;;;5001083;28;20077;-50
2021/12/15 10:35:49;;;;;;;12.75;10.73;;;12.90;76.90;;;;;;5000318;28;20129;-51
2021/12/15 10:38:18;;;;;;;13.30;10.43;;;12.90;76.80;;;;;;5000444;28;20524;-53
2021/12/15 10:41:00;;;;;;;14.93;10.68;;;12.90;76.70;;;;;;5002905;28;20042;-50
2021/12/15 10:43:32;;;;;;;13.77;10.68;;;12.90;76.70;;;;;;5011288;28;20042;-52
2021/12/15 10:46:02;;;;;;;14.40;10.30;;;12.90;76.70;;;;;;4994013;28;20043;-52
2021/12/15 10:48:38;;;;;;;14.00;10.20;;;12.90;76.70;;;;;;4997936;28;20045;-51
2021/12/15 10:51:22;;;;;;;13.30;10.27;;;12.90;76.80;;;;;;5002797;28;20049;-52
2021/12/15 10:53:51;;;;;;;13.77;10.27;;;12.90;76.70;;;;;;4997173;28;20039;-51
2021/12/15 10:56:21;;;;;;;12.60;10.10;;;12.90;76.70;;;;;;4990602;28;20042;-51
2021/12/15 10:58:54;;;;;;;15.60;10.65;;;12.90;76.80;;;;;;4998579;28;20050;-48
2021/12/15 11:02:05;;;;;;;13.10;10.25;;;13.00;77.00;;;;;;5002612;28;20041;-49
2021/12/15 11:04:46;;;;;;;15.35;11.10;;;13.00;77.00;;;;;;5006572;28;20412;-48
2021/12/15 11:07:15;;;;;;;13.68;10.98;;;13.00;76.80;;;;;;4994833;28;20035;-52
2021/12/15 11:09:50;;;;;;;17.63;12.07;;;13.00;76.80;;;;;;4990802;28;20393;-51
2021/12/15 11:12:49;;;;;;;16.65;11.38;;;13.00;76.80;;;;;;4993504;28;20124;-53
2021/12/15 11:15:22;;;;;;;15.25;11.25;;;13.00;76.80;;;;;;4999880;28;20050;-48
2021/12/15 11:17:58;;;;;;;14.30;10.20;;;13.00;76.80;;;;;;5001841;28;20561;-48
2021/12/15 11:20:35;;;;;;;17.35;11.02;;;13.10;76.90;;;;;;5010711;28;20045;-53
2021/12/15 11:23:14;;;;;;;15.27;11.10;;;13.00;76.90;;;;;;4997675;28;20097;-49
2021/12/15 11:25:50;;;;;;;19.25;12.20;;;13.10;76.90;;;;;;4993342;28;20101;-48
2021/12/15 11:28:18;;;;;;;17.05;11.55;;;13.10;76.90;;;;;;5002533;28;20049;-52
2021/12/15 11:30:52;;;;;;;16.83;11.10;;;13.10;76.80;;;;;;5010893;28;20543;-48
2021/12/15 11:33:23;;;;;;;15.20;10.80;;;13.10;76.70;;;;;;4997382;28;20125;-50
2021/12/15 11:36:00;;;;;;;15.93;11.73;;;13.10;76.80;;;;;;5002243;28;20041;-48
2021/12/15 11:38:39;;;;;;;17.88;11.32;;;13.10;76.80;;;;;;5004664;28;20047;-49
2021/12/15 11:41:11;;;;;;;14.98;11.90;;;13.10;76.70;;;;;;5013351;28;20046;-49
2021/12/15 11:43:44;;;;;;;17.70;12.02;;;13.20;77.10;;;;;;4997917;28;20074;-50
2021/12/15 11:46:20;;;;;;;14.25;11.07;;;13.20;76.70;;;;;;5002367;28;20093;-48
2021/12/15 11:48:54;;;;;;;16.15;11.43;;;13.10;76.60;;;;;;5010917;28;20048;-52
2021/12/15 11:51:30;;;;;;;17.58;12.27;;;13.20;76.60;;;;;;5011320;28;20042;-49
2021/12/15 11:53:57;;;;;;;16.02;10.75;;;13.20;76.60;;;;;;4999740;28;20518;-51
2021/12/15 11:56:35;;;;;;;16.35;11.32;;;13.20;76.60;;;;;;4997216;28;20042;-48
2021/12/15 11:59:27;;;;;;;15.90;11.20;;;13.20;76.60;;;;;;5005650;28;20116;-52
2021/12/15 12:02:08;;;;;;;18.25;12.52;;;13.20;76.70;;;;;;5009119;28;20514;-51
2021/12/15 12:04:57;;;;;;;16.55;11.65;;;13.20;76.60;;;;;;5007259;28;20034;-48
2021/12/15 12:07:28;;;;;;;14.77;10.77;;;13.20;76.60;;;;;;4995948;28;20031;-51
2021/12/15 12:10:05;;;;;;;18.58;12.13;;;13.20;76.60;;;;;;4994210;28;20034;-52
2021/12/15 12:12:40;;;;;;;18.20;10.90;;;13.20;76.60;;;;;;4995491;28;20489;-49
2021/12/15 12:15:13;;;;;;;22.95;12.95;;;13.20;76.60;;;;;;5002574;28;20465;-51
2021/12/15 12:17:43;;;;;;;18.50;12.57;;;13.20;76.50;;;;;;4997381;28;20046;-51
2021/12/15 12:20:15;;;;;;;17.67;12.52;;;13.20;76.50;;;;;;4992830;28;20301;-53
2021/12/15 12:22:45;;;;;;;21.40;12.93;;;13.20;76.60;;;;;;5000959;28;20097;-52
2021/12/15 12:25:18;;;;;;;19.40;12.25;;;13.30;76.70;;;;;;4993940;28;20041;-48
2021/12/15 12:27:49;;;;;;;17.15;11.80;;;13.20;76.60;;;;;;4993070;28;20121;-48
2021/12/15 12:30:25;;;;;;;18.23;12.23;;;13.30;76.60;;;;;;4995270;28;20490;-48
2021/12/15 12:32:52;;;;;;;19.10;13.55;;;13.20;76.50;;;;;;5002974;28;20104;-48
2021/12/15 12:35:26;;;;;;;20.73;13.60;;;13.30;76.50;;;;;;5012439;28;20437;-52
2021/12/15 12:37:59;;;;;;;17.48;12.23;;;13.30;76.60;;;;;;4996835;28;20097;-51
2021/12/15 12:40:33;;;;;;;20.88;13.05;;;13.30;76.60;;;;;;4994778;28;20049;-50
2021/12/15 12:43:21;;;;;;;21.75;13.27;;;13.30;76.50;;;;;;5003493;28;20049;-49
2021/12/15 12:45:58;;;;;;;17.63;12.30;;;13.30;76.60;;;;;;5009850;28;20464;-49
2021/12/15 12:59:49;;;;;;;22.27;14.45;;;13.30;76.40;;;;;;4996083;28;20116;-52
2021/12/15 13:02:30;;;;;;;26.13;15.98;;;13.30;76.40;;;;;;4994184;28;20469;-49
2021/12/15 13:04:58;;;;;;;29.83;17.02;;;13.30;76.40;;;;;;4993118;28;20064;-50
2021/12/15 13:07:45;;;;;;;26.40;18.35;;;13.30;76.60;;;;;;4991829;28;20155;-48
2021/12/15 13:10:12;;;;;;;24.52;14.73;;;13.40;76.70;;;;;;4996647;28;20038;-53
2021/12/15 13:12:47;;;;;;;22.42;14.45;;;13.40;76.60;;;;;;5004307;28;20034;-49
2021/12/15 13:15:21;;;;;;;22.67;15.00;;;13.40;76.50;;;;;;5008481;28;20049;-53
2021/12/15 13:18:11;;;;;;;24.38;14.48;;;13.40;76.40;;;;;;4995044;28;20046;-48
2021/12/15 13:20:38;;;;;;;20.50;13.48;;;13.40;76.40;;;;;;5002782;28;20046;-47
2021/12/15 13:23:30;;;;;;;17.15;13.63;;;13.50;76.40;;;;;;4979062;28;20065;-48
2021/12/15 13:28:50;;;;;;;19.00;14.07;;;13.50;76.20;;;;;;4983245;28;20046;-52
2021/12/15 13:31:22;;;;;;;18.10;13.90;;;13.60;76.10;;;;;;4993950;28;20042;-51
2021/12/15 13:34:02;;;;;;;18.17;13.23;;;13.60;76.00;;;;;;4985877;28;20038;-52
2021/12/15 13:36:39;;;;;;;18.67;13.25;;;13.60;75.90;;;;;;4977320;28;20093;-52
2021/12/15 13:39:10;;;;;;;18.33;13.32;;;13.60;76.50;;;;;;4993144;28;20104;-49
2021/12/15 13:41:47;;;;;;;18.05;13.25;;;13.60;75.70;;;;;;5004413;28;20050;-52
2021/12/15 13:44:27;;;;;;;22.35;13.80;;;13.60;75.80;;;;;;4985722;28;20050;-48
2021/12/15 13:47:15;;;;;;;19.02;13.38;;;13.60;75.70;;;;;;4993175;28;20108;-50
2021/12/15 13:49:49;;;;;;;20.17;13.70;;;13.70;75.50;;;;;;4994225;28;20041;-52
2021/12/15 13:52:34;;;;;;;18.95;13.18;;;13.70;75.40;;;;;;4999050;28;20065;-51
2021/12/15 13:55:24;;;;;;;23.98;21.20;;;13.70;75.20;;;;;;4987655;28;20038;-50
2021/12/15 13:58:05;;;;;;;19.35;15.07;;;13.70;75.30;;;;;;4991256;28;20751;-50
2021/12/15 14:00:38;;;;;;;24.35;18.15;;;13.70;75.20;;;;;;4996465;28;20104;-52
2021/12/15 14:03:10;;;;;;;26.90;18.67;;;13.60;75.20;;;;;;4984257;28;20042;-52
2021/12/15 14:05:46;;;;;;;22.55;16.88;;;13.60;75.30;;;;;;4997012;28;20046;-52
2021/12/15 14:08:17;;;;;;;24.15;18.17;;;13.60;75.40;;;;;;4983896;28;20042;-52
2021/12/15 14:10:57;;;;;;;26.20;19.77;;;13.60;75.30;;;;;;4990791;28;20449;-47
2021/12/15 14:13:39;;;;;;;25.40;19.17;;;13.60;75.20;;;;;;4984767;28;20564;-50
2021/12/15 14:16:06;;;;;;;23.77;18.02;;;13.60;75.20;;;;;;4987504;28;20041;-52
2021/12/15 14:18:34;;;;;;;21.92;16.08;;;13.60;75.30;;;;;;4988902;28;20528;-50